Roberval, Roberval Airport (CYRJ)

NameRoberval Airport
CityRoberval
CountryCanada
ICAOCYRJ
IATAYRJ
Altitude179 m
CoordinatesGoogle Map
Live Air TrafficLiveATC.net
METARCYRJ 201600Z 11005KT 1/4SM -DZ FG VV001 08/08 A2955 RMK FG8 SLP013
2019-05-20 16:00:00 Wind: East (110°) 2.57 m/s - Visibility: 6437.36 m - Weather: Light Drizzle / Fog - Temperature: 8 °C - Dew point: 8 °C - Humidity: 100% - Pressure: 1000.68 hPa
Statistics

The table below shows the detailed information of all flights to/from Roberval, Roberval Airport (CYRJ).